Orbital elements of ORBCOMM FM15
| Launched | 1 August 1998 |
| Flight ended | – |
| Launch site | Eastern Range Airspace |
| Owner | ORBCOMM |
| NORAD ID | 25418 |
| Alternative names |
SLOT B3 |
| Date fetched |
Epoch osculation |
Inc. [°] |
Ecc. | RA asc node [hr] |
Arg Peri. [°] |
Mean anom [°] |
Mean motion [rev/day] |
Abs. mag |
| Date fetched |
Epoch osculation |
Inc. [°] |
Ecc. | RA asc node [hr] |
Arg Peri. [°] |
Mean anom [°] |
Mean motion [rev/day] |
Abs. mag |
| 2026 May 03 17:57 | 2026 Apr 30 08:24:09 | 44.9956 | 0.00018 | 7.4352 | 72.6117 | 287.4930 | 14.39585 | 9.243 |
| 2026 May 02 17:57 | 2026 Apr 30 08:24:09 | 44.9956 | 0.00018 | 7.4352 | 72.6117 | 287.4930 | 14.39585 | 9.243 |
| 2026 May 01 17:56 | 2026 Apr 30 08:24:09 | 44.9956 | 0.00018 | 7.4352 | 72.6117 | 287.4930 | 14.39585 | 9.243 |
| 2026 Apr 30 17:56 | 2026 Apr 30 08:24:09 | 44.9956 | 0.00018 | 7.4352 | 72.6117 | 287.4930 | 14.39585 | 9.243 |
| 2026 Apr 29 17:57 | 2026 Apr 24 05:50:07 | 44.9951 | 0.00020 | 9.3707 | 32.8987 | 287.4930 | 14.39585 | 9.243 |
| 2026 Apr 28 17:56 | 2026 Apr 24 05:50:07 | 44.9951 | 0.00020 | 9.3707 | 32.8987 | 287.4930 | 14.39585 | 9.243 |
| 2026 Apr 27 17:58 | 2026 Apr 24 05:50:07 | 44.9951 | 0.00020 | 9.3707 | 32.8987 | 287.4930 | 14.39585 | 9.243 |
| 2026 Apr 26 17:58 | 2026 Apr 24 05:50:07 | 44.9951 | 0.00020 | 9.3707 | 32.8987 | 287.4930 | 14.39585 | 9.243 |
| 2026 Apr 25 17:58 | 2026 Apr 24 05:50:07 | 44.9951 | 0.00020 | 9.3707 | 32.8987 | 287.4930 | 14.39585 | 9.243 |
| 2026 Apr 24 17:59 | 2026 Apr 24 05:50:07 | 44.9951 | 0.00020 | 9.3707 | 32.8987 | 287.4930 | 14.39585 | 9.243 |
| 2026 Apr 23 17:57 | 2026 Apr 19 10:54:45 | 44.9957 | 0.00023 | 10.8882 | 7.3407 | 287.4930 | 14.39585 | 9.243 |
| 2026 Apr 22 17:57 | 2026 Apr 19 10:54:45 | 44.9957 | 0.00023 | 10.8882 | 7.3407 | 287.4930 | 14.39585 | 9.243 |
| 2026 Apr 21 17:57 | 2026 Apr 19 10:54:45 | 44.9957 | 0.00023 | 10.8882 | 7.3407 | 287.4930 | 14.39585 | 9.243 |
| 2026 Apr 20 17:57 | 2026 Apr 19 10:54:45 | 44.9957 | 0.00023 | 10.8882 | 7.3407 | 287.4930 | 14.39585 | 9.243 |
| 2026 Apr 19 17:58 | 2026 Apr 19 10:54:45 | 44.9957 | 0.00023 | 10.8882 | 7.3407 | 287.4930 | 14.39585 | 9.243 |
| 2026 Apr 18 17:56 | 2026 Apr 14 12:39:28 | 44.9961 | 0.00027 | 12.4497 | 345.3180 | 287.4930 | 14.39585 | 9.243 |
| 2026 Apr 16 17:57 | 2026 Apr 14 12:39:28 | 44.9961 | 0.00027 | 12.4497 | 345.3180 | 287.4930 | 14.39585 | 9.243 |
| 2026 Apr 14 17:57 | 2026 Apr 14 12:39:28 | 44.9961 | 0.00027 | 12.4497 | 345.3180 | 287.4930 | 14.39585 | 9.243 |
| 2026 Apr 13 17:57 | 2026 Apr 13 06:40:40 | 44.9959 | 0.00028 | 12.8456 | 340.2276 | 287.4930 | 14.39585 | 9.243 |
| 2026 Apr 12 17:57 | 2026 Apr 12 12:21:23 | 44.9960 | 0.00028 | 13.0875 | 337.2281 | 287.4930 | 14.39585 | 9.243 |
| 2026 Apr 11 17:57 | 2026 Apr 11 13:02:19 | 44.9960 | 0.00029 | 13.3954 | 333.2583 | 287.4930 | 14.39585 | 9.243 |
| 2026 Apr 10 17:58 | 2026 Apr 10 07:03:30 | 44.9961 | 0.00030 | 13.7913 | 328.9141 | 287.4930 | 14.39585 | 9.243 |
| 2026 Apr 09 18:01 | 2026 Apr 09 07:44:26 | 44.9962 | 0.00030 | 14.0992 | 325.0371 | 287.4930 | 14.39585 | 9.243 |
| 2026 Apr 08 17:57 | 2026 Apr 08 06:45:25 | 44.9963 | 0.00031 | 14.4290 | 321.4414 | 287.4930 | 14.39585 | 9.243 |
| 2026 Apr 07 17:57 | 2026 Apr 06 14:46:59 | 44.9962 | 0.00032 | 14.9569 | 315.2170 | 287.4930 | 14.39585 | 9.243 |
| 2026 Apr 06 17:57 | 2026 Apr 06 01:27:30 | 44.9962 | 0.00032 | 15.1328 | 313.3533 | 287.4930 | 14.39585 | 9.243 |